Time;durP1;ratioP1;P1;durP2;ratioP2;P2;SDS_P1;SDS_P2;PMS_P1;PMS_P2;Temp;Humidity;BMP_temperature;BMP_pressure;BME280_temperature;BME280_humidity;BME280_pressure;Samples;Min_cycle;Max_cycle;Signal;HPM_P1;HPM_P2
2021/10/23 00:00:14;;;;;;;3.00;1.12;;;;;;;5.39;76.29;100344.63;1786969;80;22589;-83
2021/10/23 00:02:43;;;;;;;2.72;1.02;;;;;;;5.35;76.31;100341.42;1786611;80;21019;-83
2021/10/23 00:05:09;;;;;;;3.92;1.40;;;;;;;5.31;76.35;100336.92;1787045;80;21081;-83
2021/10/23 00:07:39;;;;;;;4.45;1.40;;;;;;;5.28;76.45;100336.79;1786980;80;21601;-84
2021/10/23 00:10:06;;;;;;;3.08;1.12;;;;;;;5.29;76.64;100338.98;1786487;80;21224;-84
2021/10/23 00:12:33;;;;;;;4.53;1.77;;;;;;;5.30;76.71;100349.48;1787077;79;21750;-83
2021/10/23 00:15:00;;;;;;;5.37;1.98;;;;;;;5.33;76.86;100356.14;1786950;80;21049;-83
2021/10/23 00:17:26;;;;;;;5.42;1.40;;;;;;;5.37;76.95;100367.17;1786718;79;21592;-83
2021/10/23 00:19:54;;;;;;;3.70;1.42;;;;;;;5.38;76.89;100359.80;1789378;80;21595;-83
2021/10/23 00:22:21;;;;;;;4.37;1.37;;;;;;;5.36;76.82;100366.67;1790612;80;21010;-84
2021/10/23 00:24:48;;;;;;;4.58;1.47;;;;;;;5.33;76.83;100377.02;1790839;78;22403;-83
2021/10/23 00:27:15;;;;;;;4.67;1.60;;;;;;;5.30;76.89;100378.19;1790890;80;21041;-84
2021/10/23 00:29:41;;;;;;;5.75;1.65;;;;;;;5.27;76.98;100379.36;1790962;80;21117;-84
2021/10/23 00:32:08;;;;;;;4.22;1.50;;;;;;;5.28;77.11;100377.66;1790992;80;21077;-83
2021/10/23 00:34:35;;;;;;;8.95;1.65;;;;;;;5.28;77.24;100385.48;1790798;80;21105;-83
2021/10/23 00:37:02;;;;;;;5.95;1.20;;;;;;;5.34;77.50;100401.39;1791083;79;21804;-83
2021/10/23 00:39:29;;;;;;;4.17;1.20;;;;;;;5.43;77.66;100406.98;1790866;80;21129;-84
2021/10/23 00:41:55;;;;;;;4.75;1.60;;;;;;;5.55;77.65;100394.82;1791033;80;21026;-83
2021/10/23 00:44:33;;;;;;;7.83;1.65;;;;;;;5.57;77.42;100401.87;1790995;80;21018;-83
2021/10/23 00:47:06;;;;;;;8.48;2.17;;;;;;;5.56;77.28;100402.72;1790933;80;21657;-84
2021/10/23 00:49:33;;;;;;;3.92;1.32;;;;;;;5.54;77.21;100397.85;1790722;78;22460;-84
2021/10/23 00:52:02;;;;;;;7.03;1.70;;;;;;;5.49;77.14;100396.77;1790893;79;21591;-84
2021/10/23 00:54:30;;;;;;;5.37;1.27;;;;;;;5.45;77.18;100390.96;1758876;80;21073;-84
2021/10/23 00:56:57;;;;;;;6.08;1.42;;;;;;;5.42;77.22;100393.44;1790993;80;20999;-83
2021/10/23 00:59:27;;;;;;;5.70;1.27;;;;;;;5.36;77.24;100396.69;1790994;80;21113;-83
2021/10/23 01:01:53;;;;;;;3.70;1.30;;;;;;;5.34;77.35;100402.27;1791132;80;21829;-82
2021/10/23 01:04:20;;;;;;;3.75;1.45;;;;;;;5.32;77.40;100406.96;1790763;78;21070;-83
2021/10/23 01:06:48;;;;;;;4.80;1.30;;;;;;;5.29;77.45;100402.91;1792743;80;21065;-83
2021/10/23 01:09:15;;;;;;;6.95;1.32;;;;;;;5.28;77.50;100405.06;1794020;78;21078;-82
2021/10/23 01:11:44;;;;;;;8.03;1.22;;;;;;;5.26;77.58;100398.05;1742168;81;21607;-83
2021/10/23 01:14:19;;;;;;;4.50;1.30;;;;;;;5.26;77.64;100406.30;1727398;82;22421;-83
2021/10/23 01:16:47;;;;;;;4.33;1.12;;;;;;;5.26;77.77;100408.91;1725942;83;21065;-83
2021/10/23 01:19:19;;;;;;;4.55;1.25;;;;;;;5.26;77.82;100408.48;1729973;82;21091;-83
2021/10/23 01:21:52;;;;;;;6.03;1.30;;;;;;;5.31;77.93;100410.38;1784322;80;21019;-83
2021/10/23 01:24:18;;;;;;;2.83;1.00;;;;;;;5.33;77.94;100419.16;1732451;81;21539;-83
2021/10/23 01:26:47;;;;;;;3.92;1.20;;;;;;;5.37;78.04;100427.63;1730233;81;21619;-83
2021/10/23 01:29:15;;;;;;;4.20;1.37;;;;;;;5.47;78.25;100429.76;1763202;81;21981;-83
2021/10/23 01:31:42;;;;;;;4.80;1.42;;;;;;;5.58;78.29;100424.55;1762996;81;21073;-83
2021/10/23 01:34:22;;;;;;;4.47;1.32;;;;;;;5.64;78.08;100430.43;1762980;81;21038;-83
2021/10/23 01:36:55;;;;;;;2.95;1.25;;;;;;;5.65;77.93;100425.28;1763239;80;21085;-83
2021/10/23 01:39:23;;;;;;;4.37;1.30;;;;;;;5.65;77.87;100429.20;1763195;81;21769;-83
2021/10/23 01:41:50;;;;;;;4.62;1.32;;;;;;;5.63;77.76;100426.94;1763023;81;21046;-83
2021/10/23 01:44:17;;;;;;;4.83;1.20;;;;;;;5.62;77.77;100430.37;1763207;80;21058;-83
2021/10/23 01:46:44;;;;;;;7.28;1.40;;;;;;;5.59;77.78;100430.27;1763177;80;21065;-84
2021/10/23 01:49:22;;;;;;;4.58;1.20;;;;;;;5.58;77.84;100435.00;1763085;80;21141;-83
2021/10/23 01:51:44;;;;;;;4.10;1.40;;;;;;;5.55;77.85;100436.17;1756109;81;21591;-83
2021/10/23 01:54:11;;;;;;;4.28;1.40;;;;;;;5.55;77.93;100438.78;1763282;80;21090;-82
2021/10/23 01:56:39;;;;;;;3.08;0.90;;;;;;;5.57;78.06;100442.34;1763081;81;21662;-82
2021/10/23 01:59:08;;;;;;;6.78;1.40;;;;;;;5.61;78.17;100441.66;1762987;80;21113;-83
2021/10/23 02:01:34;;;;;;;3.30;1.05;;;;;;;5.67;78.19;100447.54;1763220;81;21066;-83
2021/10/23 02:04:01;;;;;;;3.37;1.27;;;;;;;5.70;78.16;100446.34;1763022;81;22490;-82
2021/10/23 02:06:28;;;;;;;6.22;1.50;;;;;;;5.72;78.08;100451.20;1762878;80;21101;-82
2021/10/23 02:08:57;;;;;;;4.50;1.35;;;;;;;5.70;78.02;100449.38;1729925;81;21545;-82
2021/10/23 02:11:24;;;;;;;6.20;1.30;;;;;;;5.70;78.01;100449.38;1763149;80;21548;-82
2021/10/23 02:13:52;;;;;;;3.27;1.10;;;;;;;5.64;77.98;100445.67;1729961;81;21030;-82
2021/10/23 02:16:24;;;;;;;4.40;1.20;;;;;;;5.63;78.00;100446.52;1729717;81;21042;-82
2021/10/23 02:18:50;;;;;;;2.92;1.07;;;;;;;5.62;77.98;100446.45;1761936;80;21098;-82
2021/10/23 02:21:20;;;;;;;5.65;1.20;;;;;;;5.61;78.02;100456.02;1772345;80;21333;-82
2021/10/23 02:23:45;;;;;;;6.00;1.30;;;;;;;5.59;77.99;100457.68;1771477;80;21030;-82
2021/10/23 02:26:12;;;;;;;3.80;1.00;;;;;;;5.56;77.99;100463.19;1772304;80;21088;-81
2021/10/23 02:28:42;;;;;;;6.65;1.65;;;;;;;5.55;78.06;100466.19;1743316;80;21137;-82
2021/10/23 02:31:09;;;;;;;4.95;1.20;;;;;;;5.53;78.01;100465.23;1770757;80;21042;-82
2021/10/23 02:33:36;;;;;;;2.95;1.15;;;;;;;5.50;78.07;100468.14;1772274;80;21061;-83
2021/10/23 02:36:03;;;;;;;3.62;1.10;;;;;;;5.48;78.09;100464.19;1772235;80;21128;-83
2021/10/23 02:38:30;;;;;;;5.10;1.02;;;;;;;5.48;78.16;100481.55;1772189;80;21153;-84
2021/10/23 02:40:57;;;;;;;6.87;1.10;;;;;;;5.47;78.22;100482.39;1695482;80;23131;-84
2021/10/23 02:43:24;;;;;;;4.78;1.07;;;;;;;5.46;78.22;100488.00;1772294;80;21053;-84
2021/10/23 02:45:51;;;;;;;3.70;0.98;;;;;;;5.43;78.20;100487.90;1772304;80;21089;-82
2021/10/23 02:48:20;;;;;;;4.58;1.17;;;;;;;5.40;78.24;100491.25;1771032;80;21583;-83
2021/10/23 02:50:46;;;;;;;1.62;0.70;;;;;;;5.41;78.27;100485.64;1772209;80;21099;-83
2021/10/23 02:53:13;;;;;;;2.10;0.80;;;;;;;5.39;78.32;100496.44;1772187;80;22556;-83
2021/10/23 02:55:40;;;;;;;3.52;1.22;;;;;;;5.38;78.37;100492.02;1771942;80;21136;-83
2021/10/23 02:58:09;;;;;;;4.75;1.27;;;;;;;5.35;78.32;100488.89;1771701;80;21080;-84
2021/10/23 03:00:36;;;;;;;5.30;1.52;;;;;;;5.32;78.31;100497.00;1772169;80;21109;-83
2021/10/23 03:03:05;;;;;;;1.75;0.90;;;;;;;5.30;78.39;100497.35;1772166;80;21128;-82
2021/10/23 03:05:35;;;;;;;2.12;1.15;;;;;;;5.29;78.38;100499.47;1770130;80;21972;-82
2021/10/23 03:08:02;;;;;;;5.42;1.40;;;;;;;5.26;78.42;100505.46;1770046;80;21047;-83
2021/10/23 03:10:28;;;;;;;4.53;1.32;;;;;;;5.24;78.47;100511.91;1768898;80;21013;-82
2021/10/23 03:12:55;;;;;;;5.15;1.00;;;;;;;5.23;78.51;100504.90;1768967;81;21486;-82
2021/10/23 03:15:25;;;;;;;6.45;1.20;;;;;;;5.22;78.52;100502.25;1769072;81;21608;-82
2021/10/23 03:17:51;;;;;;;4.17;1.40;;;;;;;5.20;78.58;100509.09;1768344;79;21885;-83
2021/10/23 03:20:19;;;;;;;4.67;1.20;;;;;;;5.19;78.67;100510.81;1729291;81;21554;-82
2021/10/23 03:22:49;;;;;;;3.85;1.00;;;;;;;5.18;78.70;100506.44;1778341;80;21742;-82
2021/10/23 03:25:14;;;;;;;3.20;1.12;;;;;;;5.20;78.85;100516.92;1777884;80;21027;-83
2021/10/23 03:27:45;;;;;;;6.03;1.30;;;;;;;5.20;78.81;100520.83;1778715;80;21592;-83
2021/10/23 03:30:10;;;;;;;2.60;0.90;;;;;;;5.18;78.86;100524.70;1777893;80;21882;-83
2021/10/23 03:32:40;;;;;;;2.47;1.15;;;;;;;5.19;78.92;100512.13;1778541;80;21059;-83
2021/10/23 03:35:07;;;;;;;4.60;1.17;;;;;;;5.20;79.00;100519.14;1778687;80;21078;-84
2021/10/23 03:37:35;;;;;;;3.12;1.00;;;;;;;5.20;78.98;100523.05;1778693;80;21038;-84
2021/10/23 03:40:03;;;;;;;7.47;1.12;;;;;;;5.20;78.91;100530.88;1778661;80;21086;-84
2021/10/23 03:42:30;;;;;;;3.40;1.10;;;;;;;5.19;79.03;100533.00;1778713;80;21810;-84
2021/10/23 03:45:04;;;;;;;4.03;1.47;;;;;;;5.27;79.25;100543.77;1778694;80;21047;-85
2021/10/23 03:47:31;;;;;;;6.12;1.17;;;;;;;5.22;79.13;100533.14;1778493;80;21059;-85
2021/10/23 03:49:58;;;;;;;3.95;1.20;;;;;;;5.30;79.06;100539.11;1778666;80;21572;-84
2021/10/23 03:52:27;;;;;;;3.80;1.02;;;;;;;5.28;79.09;100542.95;1778839;80;21030;-84
2021/10/23 03:54:53;;;;;;;4.60;1.40;;;;;;;5.28;79.04;100543.38;1779095;80;21905;-84
2021/10/23 03:57:20;;;;;;;4.33;1.07;;;;;;;5.25;79.10;100553.24;1778961;80;21034;-84
2021/10/23 03:59:49;;;;;;;6.67;1.50;;;;;;;5.24;79.16;100556.28;1778932;80;21074;-84
2021/10/23 04:02:16;;;;;;;4.17;1.25;;;;;;;5.25;79.25;100558.08;1778654;80;21086;-84
2021/10/23 04:04:45;;;;;;;4.10;1.25;;;;;;;5.26;79.28;100554.63;1778113;80;21007;-82
2021/10/23 04:07:13;;;;;;;3.75;1.10;;;;;;;5.26;79.32;100559.84;1778149;80;21117;-83
2021/10/23 04:09:40;;;;;;;4.28;1.37;;;;;;;5.28;79.31;100566.86;1778678;80;21035;-83
2021/10/23 04:12:07;;;;;;;6.33;1.40;;;;;;;5.28;79.37;100562.95;1778606;80;21023;-83
2021/10/23 04:14:38;;;;;;;2.22;1.02;;;;;;;5.28;79.37;100566.86;1778129;80;21042;-82
2021/10/23 04:17:06;;;;;;;5.40;1.20;;;;;;;5.29;79.36;100569.93;1778175;80;21156;-84
2021/10/23 04:19:33;;;;;;;3.27;1.02;;;;;;;5.30;79.42;100575.22;1778188;80;21749;-83
2021/10/23 04:22:00;;;;;;;4.78;1.22;;;;;;;5.31;79.44;100583.94;1768662;80;21098;-83
2021/10/23 04:24:27;;;;;;;1.60;0.65;;;;;;;5.33;79.47;100580.59;1768648;81;21123;-81
2021/10/23 04:26:53;;;;;;;3.77;0.95;;;;;;;5.37;79.46;100580.31;1768767;80;21063;-81
2021/10/23 04:29:21;;;;;;;4.20;1.15;;;;;;;5.37;79.40;100595.55;1768746;80;21561;-81
2021/10/23 04:31:49;;;;;;;3.55;1.10;;;;;;;5.37;79.35;100594.25;1768438;81;21048;-80
2021/10/23 04:34:16;;;;;;;4.10;1.00;;;;;;;5.37;79.36;100598.16;1768611;80;21545;-82
2021/10/23 04:36:43;;;;;;;6.37;1.25;;;;;;;5.36;79.31;100602.00;1768747;81;21043;-82
2021/10/23 04:39:10;;;;;;;2.60;0.98;;;;;;;5.35;79.34;100612.86;1768964;81;21390;-78
2021/10/23 04:41:39;;;;;;;3.62;1.07;;;;;;;5.38;79.50;100606.45;1769001;81;21565;-84
2021/10/23 04:52:33;;;;;;;3.10;1.10;;;;;;;5.63;79.99;100633.61;1739160;81;21071;-89
2021/10/23 04:55:00;;;;;;;4.33;1.55;;;;;;;5.87;80.21;100671.64;1768358;81;21588;-83
2021/10/23 04:57:26;;;;;;;4.72;1.20;;;;;;;6.07;80.21;100665.11;1768326;81;21059;-84
2021/10/23 04:59:53;;;;;;;3.67;1.12;;;;;;;6.21;80.18;100682.24;1768625;81;21119;-84
2021/10/23 05:02:21;;;;;;;7.92;1.35;;;;;;;6.33;80.13;100673.61;1767864;81;21102;-83
2021/10/23 05:04:48;;;;;;;5.72;1.70;;;;;;;6.46;80.08;100671.08;1768711;81;21521;-83
2021/10/23 05:07:17;;;;;;;4.40;1.20;;;;;;;6.56;80.16;100678.45;1761832;80;21349;-83
2021/10/23 05:09:43;;;;;;;3.92;1.50;;;;;;;6.66;80.07;100688.86;1768799;81;21008;-83
2021/10/23 05:12:13;;;;;;;5.75;1.50;;;;;;;6.75;80.01;100663.48;1769214;81;21751;-87
2021/10/23 05:14:40;;;;;;;7.95;1.72;;;;;;;6.80;80.01;100644.95;1769501;81;21044;-87
2021/10/23 05:17:06;;;;;;;5.87;1.37;;;;;;;6.85;79.96;100651.25;1769251;81;21043;-83
2021/10/23 05:19:33;;;;;;;5.28;1.10;;;;;;;6.88;79.96;100639.58;1768518;80;21102;-83
2021/10/23 05:22:00;;;;;;;3.98;1.17;;;;;;;6.92;79.65;100649.75;1777484;79;21062;-83
2021/10/23 05:24:28;;;;;;;7.17;1.75;;;;;;;6.94;79.47;100658.55;1777795;80;21882;-83
2021/10/23 05:26:54;;;;;;;11.10;3.98;;;;;;;6.98;79.55;100656.12;1778274;80;21609;-83
2021/10/23 05:29:25;;;;;;;6.65;3.45;;;;;;;7.01;79.60;100672.34;1778364;80;21381;-83
2021/10/23 05:31:50;;;;;;;14.47;11.70;;;;;;;7.03;79.61;100673.72;1777332;80;21090;-83
2021/10/23 05:34:17;;;;;;;9.60;7.78;;;;;;;7.01;79.64;100679.77;1778478;80;21070;-83
2021/10/23 05:36:43;;;;;;;24.60;22.15;;;;;;;7.01;79.68;100691.55;1778414;80;21919;-84
2021/10/23 05:39:10;;;;;;;13.80;10.93;;;;;;;7.05;79.78;100692.56;1778248;80;21549;-82
2021/10/23 05:41:38;;;;;;;11.00;7.10;;;;;;;7.09;79.87;100691.83;1778477;80;21066;-82
2021/10/23 05:44:09;;;;;;;17.07;11.25;;;;;;;7.13;79.87;100692.84;1778241;80;21058;-82
2021/10/23 05:46:33;;;;;;;6.72;3.47;;;;;;;7.18;79.83;100683.45;1767647;80;21086;-83
2021/10/23 05:49:00;;;;;;;13.90;6.85;;;;;;;7.18;79.67;100675.17;1778499;80;22516;-83
2021/10/23 05:51:27;;;;;;;5.92;3.22;;;;;;;7.16;79.67;100678.15;1745899;82;21064;-83
2021/10/23 05:53:57;;;;;;;5.37;2.50;;;;;;;7.16;79.68;100675.53;1784409;79;21042;-81
2021/10/23 05:56:23;;;;;;;6.28;2.72;;;;;;;7.16;79.78;100679.46;1786669;79;21050;-82
2021/10/23 05:58:52;;;;;;;12.85;5.85;;;;;;;7.16;79.67;100688.62;1786667;79;21615;-82
2021/10/23 06:01:18;;;;;;;8.08;5.37;;;;;;;7.14;79.60;100686.80;1723018;83;21961;-82
2021/10/23 06:03:45;;;;;;;7.08;3.98;;;;;;;7.13;79.68;100697.69;1778487;80;21543;-82
2021/10/23 06:06:12;;;;;;;8.93;4.80;;;;;;;7.16;79.78;100701.71;1778552;80;21052;-81
2021/10/23 06:08:41;;;;;;;8.68;4.83;;;;;;;7.20;79.70;100704.03;1778448;80;21042;-81
2021/10/23 06:11:07;;;;;;;19.82;15.72;;;;;;;7.21;79.67;100709.76;1778545;80;21034;-82
2021/10/23 06:13:34;;;;;;;21.25;14.28;;;;;;;7.25;79.77;100712.08;1778282;80;21774;-81
2021/10/23 06:16:01;;;;;;;18.42;11.83;;;;;;;7.35;79.92;100715.50;1778385;80;21038;-82
2021/10/23 06:18:28;;;;;;;17.25;11.38;;;;;;;7.48;79.99;100720.35;1778240;80;21062;-82
2021/10/23 06:20:57;;;;;;;33.23;23.92;;;;;;;7.61;79.97;100714.27;1775111;80;21055;-81
2021/10/23 06:23:28;;;;;;;82.97;50.70;;;;;;;7.70;79.80;100718.11;1768705;81;21133;-82
2021/10/23 06:25:52;;;;;;;29.10;18.42;;;;;;;7.79;79.73;100715.81;1767942;80;21539;-82
2021/10/23 06:28:19;;;;;;;8.78;4.83;;;;;;;7.89;79.76;100722.27;1768921;81;21059;-82
2021/10/23 06:30:45;;;;;;;13.75;4.25;;;;;;;7.99;79.67;100720.86;1768955;80;21114;-82
2021/10/23 06:33:15;;;;;;;8.28;2.87;;;;;;;8.09;79.54;100735.17;1768814;81;21170;-81
2021/10/23 06:35:41;;;;;;;10.95;4.28;;;;;;;8.16;79.37;100728.91;1768825;80;21126;-82
2021/10/23 06:38:07;;;;;;;9.90;5.28;;;;;;;8.20;79.07;100736.86;1768857;80;21739;-83
2021/10/23 06:40:34;;;;;;;9.85;5.60;;;;;;;8.17;78.81;100738.55;1768726;81;21047;-83
2021/10/23 06:43:01;;;;;;;9.10;4.47;;;;;;;8.15;78.58;100740.65;1768894;80;21001;-82
2021/10/23 06:45:27;;;;;;;6.03;3.72;;;;;;;8.11;78.40;100750.56;1740708;80;21078;-82
2021/10/23 06:47:56;;;;;;;9.05;3.15;;;;;;;8.04;78.28;100752.06;1769044;81;21521;-82
2021/10/23 06:50:23;;;;;;;5.97;2.87;;;;;;;7.98;78.19;100757.98;1769074;81;21684;-82
2021/10/23 06:52:50;;;;;;;9.18;2.95;;;;;;;7.92;78.17;100765.64;1768596;80;21046;-82
2021/10/23 06:55:16;;;;;;;10.60;3.90;;;;;;;7.88;78.24;100770.30;1768910;81;21071;-82
2021/10/23 06:57:46;;;;;;;12.65;8.10;;;;;;;7.88;78.32;100776.85;1768775;80;21055;-82
2021/10/23 07:00:12;;;;;;;7.50;2.70;;;;;;;7.88;78.30;100788.64;1768764;80;21075;-82
2021/10/23 07:02:42;;;;;;;7.60;4.08;;;;;;;7.88;78.35;100789.95;1768826;81;21793;-82
2021/10/23 07:05:16;;;;;;;8.40;4.17;;;;;;;7.94;78.48;100791.48;1768283;81;21525;-82
2021/10/23 07:07:43;;;;;;;8.78;4.03;;;;;;;8.01;78.46;100798.24;1763566;80;21133;-82
2021/10/23 07:10:10;;;;;;;8.90;3.52;;;;;;;8.09;78.52;100802.02;1768796;81;21039;-82
2021/10/23 07:12:37;;;;;;;12.45;3.25;;;;;;;8.16;78.58;100804.95;1768777;81;21060;-82
2021/10/23 07:15:08;;;;;;;9.95;3.17;;;;;;;8.28;78.56;100816.70;1769195;81;21787;-83
2021/10/23 07:17:33;;;;;;;9.73;3.00;;;;;;;8.36;78.51;100821.79;1769097;80;21111;-82
2021/10/23 07:19:59;;;;;;;8.93;2.92;;;;;;;8.46;78.48;100828.27;1785082;79;21058;-82
2021/10/23 07:22:26;;;;;;;14.47;8.43;;;;;;;8.58;78.48;100819.92;1787135;79;21020;-82
2021/10/23 07:24:53;;;;;;;21.33;10.80;;;;;;;8.77;78.59;100829.34;1786534;79;21599;-82
2021/10/23 07:27:20;;;;;;;12.03;5.60;;;;;;;9.21;79.06;100840.39;1787041;80;21816;-82
2021/10/23 07:29:50;;;;;;;22.05;10.38;;;;;;;9.83;79.29;100858.94;1787020;80;21596;-81
2021/10/23 07:32:17;;;;;;;18.25;6.37;;;;;;;10.28;78.55;100861.11;1786964;80;21579;-82
2021/10/23 07:34:43;;;;;;;17.30;4.83;;;;;;;10.44;77.62;100879.14;1786689;80;21097;-81
2021/10/23 07:37:10;;;;;;;16.77;4.05;;;;;;;10.40;76.82;100884.27;1744723;82;21063;-81
2021/10/23 07:39:37;;;;;;;12.40;3.10;;;;;;;10.23;76.41;100889.93;1810641;79;21728;-82
2021/10/23 07:42:04;;;;;;;12.82;5.60;;;;;;;10.08;76.04;100906.16;1778165;80;21577;-82
2021/10/23 07:44:31;;;;;;;3.95;1.82;;;;;;;9.95;76.17;100895.20;1811809;79;21046;-82
2021/10/23 07:47:00;;;;;;;7.70;3.75;;;;;;;9.79;75.07;100875.47;1778156;80;21027;-82
2021/10/23 07:49:28;;;;;;;20.52;14.80;;;;;;;9.69;74.94;100881.76;1811857;79;21050;-83
2021/10/23 07:51:56;;;;;;;16.17;9.70;;;;;;;9.60;75.24;100885.41;1778630;79;22621;-82
2021/10/23 07:54:26;;;;;;;12.35;6.97;;;;;;;9.54;75.52;100895.74;1811851;79;21591;-82
2021/10/23 07:56:51;;;;;;;15.05;8.48;;;;;;;9.47;75.42;100908.21;1811005;79;21113;-82
2021/10/23 07:59:18;;;;;;;16.32;9.28;;;;;;;9.41;75.46;100907.59;1778352;80;21067;-82
2021/10/23 08:01:45;;;;;;;12.82;5.17;;;;;;;9.41;75.70;100917.22;1811797;78;21576;-82
2021/10/23 08:04:12;;;;;;;18.55;7.58;;;;;;;9.43;75.75;100920.78;1778480;80;22054;-82
2021/10/23 08:06:39;;;;;;;17.90;11.18;;;;;;;9.42;75.58;100925.16;1811629;79;21101;-82
2021/10/23 08:09:11;;;;;;;9.68;4.58;;;;;;;9.40;75.67;100926.81;1778273;80;21024;-82
2021/10/23 08:11:35;;;;;;;11.05;4.95;;;;;;;9.43;75.63;100939.18;1777840;80;21565;-82
2021/10/23 08:14:01;;;;;;;12.60;6.03;;;;;;;9.46;75.64;100946.74;1778239;80;21063;-82
2021/10/23 08:16:28;;;;;;;8.65;4.17;;;;;;;9.50;75.72;100951.25;1811798;79;22448;-82
2021/10/23 08:18:57;;;;;;;13.65;6.83;;;;;;;9.59;75.80;100951.06;1777367;79;21051;-82
2021/10/23 08:21:23;;;;;;;11.83;5.28;;;;;;;9.65;75.76;100946.91;1778334;79;21055;-82
2021/10/23 08:23:50;;;;;;;11.33;4.08;;;;;;;9.72;75.79;100954.55;1811833;78;21007;-83
2021/10/23 08:26:17;;;;;;;9.93;4.53;;;;;;;9.77;75.74;100959.54;1778635;80;21055;-82
2021/10/23 08:28:44;;;;;;;13.68;4.55;;;;;;;9.85;75.74;100955.83;1811688;78;22591;-82
2021/10/23 08:31:11;;;;;;;9.90;3.55;;;;;;;9.97;75.76;100952.71;1778318;80;21052;-82
2021/10/23 08:33:38;;;;;;;14.38;4.08;;;;;;;10.07;75.62;100962.22;1778372;80;21063;-83
2021/10/23 08:36:05;;;;;;;10.53;3.60;;;;;;;10.12;75.19;100960.62;1811941;79;21030;-83
2021/10/23 08:38:32;;;;;;;13.72;3.27;;;;;;;10.16;74.90;100969.51;1778249;80;21018;-82
2021/10/23 08:40:58;;;;;;;17.62;5.12;;;;;;;10.13;74.45;100972.03;1778328;80;21734;-83
2021/10/23 08:43:28;;;;;;;12.00;4.55;;;;;;;10.06;74.23;100976.23;1777987;80;21100;-83
2021/10/23 08:45:58;;;;;;;13.43;7.90;;;;;;;10.00;74.02;100986.97;1778303;80;21039;-83
2021/10/23 08:48:29;;;;;;;20.00;7.85;;;;;;;9.92;74.00;100989.37;1778345;80;21110;-83
2021/10/23 08:50:55;;;;;;;23.02;6.47;;;;;;;9.82;73.79;100993.88;1778047;80;21031;-83
2021/10/23 08:53:21;;;;;;;13.43;3.62;;;;;;;9.70;73.77;100999.21;1811736;79;21700;-83
2021/10/23 08:55:51;;;;;;;11.88;3.15;;;;;;;9.62;73.74;101008.99;1777940;79;21560;-82
2021/10/23 08:58:17;;;;;;;17.45;3.75;;;;;;;9.55;73.83;101013.14;1811125;79;21556;-82
2021/10/23 09:00:46;;;;;;;11.45;2.45;;;;;;;9.52;73.83;101023.14;1778327;79;21048;-82
2021/10/23 09:03:13;;;;;;;8.73;2.90;;;;;;;9.53;73.86;101035.45;1778628;79;21104;-83
2021/10/23 09:05:39;;;;;;;12.45;3.67;;;;;;;9.54;74.01;101043.79;1811713;79;21735;-83
2021/10/23 09:08:18;;;;;;;13.35;3.50;;;;;;;9.53;73.95;101046.36;1778980;79;20984;-82
2021/10/23 09:10:51;;;;;;;10.13;3.45;;;;;;;9.50;73.96;101045.84;1747637;82;21591;-82
2021/10/23 09:13:30;;;;;;;18.30;4.20;;;;;;;9.56;74.17;101053.47;1747687;81;21050;-82
2021/10/23 09:15:56;;;;;;;10.63;3.60;;;;;;;9.60;74.14;101055.36;1742573;82;21019;-82
2021/10/23 09:18:43;;;;;;;19.12;3.62;;;;;;;9.71;74.27;101060.55;1747653;82;21811;-82
2021/10/23 09:21:22;;;;;;;30.77;5.10;;;;;;;9.91;74.61;101065.17;1747523;82;21055;-82
2021/10/23 09:23:51;;;;;;;28.20;4.95;;;;;;;10.16;74.26;101069.47;1747750;82;21659;-82
2021/10/23 09:26:35;;;;;;;11.15;3.20;;;;;;;10.32;74.17;101072.17;1747555;82;21113;-82
2021/10/23 09:29:24;;;;;;;9.70;2.80;;;;;;;10.48;73.91;101078.39;1747852;82;21917;-82
2021/10/23 09:31:55;;;;;;;12.10;3.35;;;;;;;10.62;73.56;101077.52;1747709;82;21769;-83
2021/10/23 09:34:23;;;;;;;19.98;3.45;;;;;;;10.87;73.55;101080.43;1747787;82;21015;-83
2021/10/23 09:36:55;;;;;;;13.22;2.92;;;;;;;11.07;73.05;101072.20;1747920;81;21117;-83
2021/10/23 09:39:29;;;;;;;17.92;3.47;;;;;;;11.25;73.00;101088.95;1747621;82;20999;-83
2021/10/23 09:42:07;;;;;;;;;;;;;;;11.39;72.57;101098.55;1750517;81;21086;-82
2021/10/23 09:44:39;;;;;;;9.28;1.95;;;;;;;11.44;72.04;101094.30;1747696;82;21800;-82
2021/10/23 09:47:08;;;;;;;3.87;1.85;;;;;;;11.38;71.45;101107.32;1747665;82;21093;-83
2021/10/23 09:49:34;;;;;;;11.63;3.40;;;;;;;11.29;70.88;101108.83;1747677;81;21034;-83
2021/10/23 09:52:07;;;;;;;12.23;2.72;;;;;;;11.19;71.08;101116.02;1716761;82;21090;-84
2021/10/23 09:54:38;;;;;;;10.55;2.80;;;;;;;11.08;70.71;101133.27;1747945;82;21490;-83
2021/10/23 09:57:11;;;;;;;7.50;1.80;;;;;;;10.90;70.58;101127.02;1747212;82;21843;-82
2021/10/23 09:59:40;;;;;;;7.90;1.85;;;;;;;10.82;70.53;101125.91;1724210;81;21109;-83
2021/10/23 10:02:07;;;;;;;2.45;1.27;;;;;;;10.76;70.36;101125.73;1695860;83;21142;-83
2021/10/23 10:04:35;;;;;;;3.35;1.32;;;;;;;10.69;69.81;101139.13;1747816;82;21062;-82
2021/10/23 10:07:05;;;;;;;4.62;1.65;;;;;;;10.64;69.93;101141.63;1747746;82;21498;-83
2021/10/23 10:09:35;;;;;;;12.85;2.35;;;;;;;10.69;69.73;101149.66;1747122;82;22634;-82
2021/10/23 10:12:02;;;;;;;8.50;2.70;;;;;;;10.79;69.72;101142.92;1748435;80;21173;-86
2021/10/23 10:17:03;;;;;;;5.62;2.02;;;;;;;11.27;69.48;101147.42;1727665;80;21062;-89
2021/10/23 10:19:31;;;;;;;4.95;1.10;;;;;;;11.36;68.63;101153.83;1781395;80;21054;-86
2021/10/23 10:22:09;;;;;;;3.30;1.20;;;;;;;11.35;68.19;101161.25;1783300;80;21784;-82
2021/10/23 10:24:36;;;;;;;5.08;1.32;;;;;;;11.34;67.92;101160.37;1757167;80;21085;-82
2021/10/23 10:27:16;;;;;;;6.25;1.47;;;;;;;11.27;67.37;101179.05;1745921;81;21050;-83
2021/10/23 10:29:55;;;;;;;4.28;0.90;;;;;;;11.13;66.98;101172.91;1772504;80;21073;-83
2021/10/23 10:32:35;;;;;;;5.55;1.57;;;;;;;10.85;65.30;101194.48;1757677;80;21041;-83
2021/10/23 10:35:16;;;;;;;3.70;0.78;;;;;;;10.54;65.29;101191.30;1776183;80;22538;-82
2021/10/23 10:43:19;;;;;;;3.10;0.93;;;;;;;10.37;66.01;101199.96;1743730;81;21062;-82
2021/10/23 10:45:55;;;;;;;3.62;1.37;;;;;;;10.80;66.09;101204.86;1693836;81;21141;-82
2021/10/23 10:48:34;;;;;;;7.97;1.47;;;;;;;11.07;65.99;101199.96;1751575;81;21824;-82
2021/10/23 10:51:11;;;;;;;2.85;1.27;;;;;;;11.23;65.76;101196.95;1709376;83;21041;-82
2021/10/23 10:53:53;;;;;;;3.67;1.40;;;;;;;11.39;64.91;101222.02;1721553;83;21182;-82
2021/10/23 10:56:20;;;;;;;2.72;1.00;;;;;;;11.38;63.89;101204.84;1721658;83;21615;-82
2021/10/23 10:59:03;;;;;;;1.75;0.95;;;;;;;11.41;64.40;101208.86;1751614;81;21664;-82
2021/10/23 11:01:22;;;;;;;3.85;0.85;;;;;;;11.31;64.27;101209.46;1746969;81;21697;-82
2021/10/23 11:04:10;;;;;;;1.72;0.90;;;;;;;11.12;63.02;101229.09;1751360;81;21651;-82
2021/10/23 11:06:42;;;;;;;3.50;1.25;;;;;;;10.81;63.04;101234.31;1750114;81;21067;-82
2021/10/23 11:09:19;;;;;;;3.75;1.00;;;;;;;10.63;63.31;101233.28;1751378;81;21033;-82
2021/10/23 11:11:51;;;;;;;18.20;2.10;;;;;;;10.74;62.98;101256.45;1751562;81;21080;-79
2021/10/23 11:14:34;;;;;;;3.00;0.98;;;;;;;10.82;62.59;101258.90;1743565;80;21756;-79
2021/10/23 11:17:15;;;;;;;2.05;0.98;;;;;;;10.95;62.92;101264.14;1732983;81;21001;-78
2021/10/23 11:19:49;;;;;;;3.83;1.20;;;;;;;11.01;62.13;101261.69;1751151;81;21089;-78
2021/10/23 11:22:27;;;;;;;1.72;0.65;;;;;;;11.03;61.92;101299.51;1754042;80;21573;-79
2021/10/23 11:25:03;;;;;;;1.90;0.88;;;;;;;10.94;61.46;101306.68;1786458;80;21063;-78
2021/10/23 11:27:45;;;;;;;1.87;1.07;;;;;;;10.74;60.52;101321.85;1783610;80;21647;-78
2021/10/23 11:30:21;;;;;;;2.22;1.00;;;;;;;10.54;60.55;101309.75;1773555;80;21066;-78
2021/10/23 11:33:04;;;;;;;1.98;1.00;;;;;;;10.40;61.24;101297.41;1758052;80;21090;-78
2021/10/23 11:35:36;;;;;;;2.00;0.70;;;;;;;10.47;61.72;101312.58;1775405;80;21114;-80
2021/10/23 11:38:07;;;;;;;2.87;1.02;;;;;;;10.60;61.15;101323.11;1708820;81;21365;-79
2021/10/23 11:40:38;;;;;;;3.30;1.40;;;;;;;10.76;61.58;101312.69;1755176;80;21747;-79
2021/10/23 11:43:05;;;;;;;3.05;0.98;;;;;;;11.06;61.20;101328.59;1755243;80;21064;-79
2021/10/23 11:45:34;;;;;;;1.50;0.70;;;;;;;11.25;60.81;101324.38;1755376;80;21017;-79
2021/10/23 11:48:10;;;;;;;3.70;0.82;;;;;;;11.44;60.90;101340.77;1761284;80;21061;-79
2021/10/23 11:50:44;;;;;;;1.75;0.95;;;;;;;11.54;60.50;101336.66;1756892;81;21082;-79
2021/10/23 11:53:25;;;;;;;2.08;1.02;;;;;;;11.55;59.23;101363.08;1765162;80;22361;-78